KBYI/BYI METAR and TAF weather

Enter ICAO airport designator
Station Type Date Time Source
KBYI METAR 2018/01/22 19:53 UTC NOAA

KBYI 221953Z AUTO 27009KT 9SM FEW009 SCT014 OVC033 02/00 A3020 RMK AO2 SNB19E51 SLP240 P0000 T00220000


Station Type Date Time Source
KBYI Decoded METAR 2018/01/22 19:53 UTC NOAA

BURLEY MUNICIPAL AIRPORT, ID, United States (KBYI) 42-33N 113-46W 1264M
Jan 22, 2018 - 02:53 PM EST / 2018.01.22 1953 UTC
Wind: from the W (270 degrees) at 10 MPH (9 KT):0
Visibility: 9 mile(s):0
Sky conditions: overcast
Precipitation last hour: A trace
Temperature: 36.0 F (2.2 C)
Dew Point: 32.0 F (0.0 C)
Relative Humidity: 85%
Pressure (altimeter): 30.2 in. Hg (1022 hPa)
ob: KBYI 221953Z AUTO 27009KT 9SM FEW009 SCT014 OVC033 02/00 A3020 RMK AO2 SNB19E51 SLP240 P0000 T00220000
cycle: 20

Station Type Date Time Source
KBYI TAF 2018/01/22 20:10 UTC NOAA

TAF
AMD KBYI 222008Z 2220/2318 26015KT P6SM SCT025 BKN060
FM230130 23008KT P6SM FEW008
FM231200 19006KT P6SM VCFG SCT008


Example: see airport list